createdAt,value
2022-09-15T00:00:11.051Z,100.00
2022-09-15T00:03:13.966Z,100.00
2022-09-15T00:06:17.237Z,100.00
2022-09-15T00:09:20.412Z,100.00
2022-09-15T00:12:22.888Z,100.00
2022-09-15T00:15:25.152Z,100.00
2022-09-15T00:18:27.244Z,100.00
2022-09-15T00:21:31.287Z,100.00
2022-09-15T00:24:34.865Z,100.00
2022-09-15T00:27:37.244Z,100.00
2022-09-15T00:30:45.004Z,100.00
2022-09-15T00:33:48.646Z,100.00
2022-09-15T00:36:51.748Z,100.00
2022-09-15T00:39:55.181Z,100.00
2022-09-15T00:42:59.532Z,100.00
2022-09-15T00:46:02.232Z,100.00
2022-09-15T00:49:07.497Z,100.00
2022-09-15T00:52:24.621Z,100.00
2022-09-15T00:55:27.468Z,100.00
2022-09-15T00:58:33.879Z,100.00
2022-09-15T01:01:36.533Z,100.00
2022-09-15T01:04:39.553Z,100.00
2022-09-15T01:07:44.138Z,100.00
2022-09-15T01:10:47.277Z,100.00
2022-09-15T01:13:49.812Z,100.00
2022-09-15T01:16:58.582Z,100.00
2022-09-15T01:20:10.629Z,100.00
2022-09-15T01:23:12.998Z,100.00
2022-09-15T01:26:34.210Z,100.00
2022-09-15T01:29:42.562Z,100.00
2022-09-15T01:33:07.302Z,100.00
2022-09-15T01:36:14.843Z,100.00
2022-09-15T01:39:21.863Z,100.00
2022-09-15T01:42:25.607Z,100.00
2022-09-15T01:45:32.036Z,100.00
2022-09-15T01:48:35.453Z,100.00
2022-09-15T01:51:39.794Z,100.00
2022-09-15T01:54:46.445Z,100.00
2022-09-15T01:57:49.854Z,100.00
2022-09-15T02:00:56.118Z,100.00
2022-09-15T02:04:11.109Z,100.00
2022-09-15T02:07:22.399Z,100.00
2022-09-15T02:10:51.313Z,100.00
2022-09-15T02:14:01.647Z,100.00
2022-09-15T02:17:06.371Z,100.00
2022-09-15T02:20:15.825Z,100.00
2022-09-15T02:23:29.039Z,100.00
2022-09-15T02:26:34.182Z,100.00
2022-09-15T02:29:37.492Z,100.00
2022-09-15T02:32:46.217Z,100.00
2022-09-15T02:35:49.618Z,100.00
2022-09-15T02:38:58.649Z,100.00
2022-09-15T02:42:02.881Z,100.00
2022-09-15T02:45:07.397Z,100.00
2022-09-15T02:48:10.151Z,100.00
2022-09-15T02:51:13.242Z,100.00
2022-09-15T02:54:16.235Z,100.00
2022-09-15T02:57:18.541Z,100.00
2022-09-15T03:00:21.241Z,100.00
2022-09-15T03:03:23.906Z,100.00
2022-09-15T03:06:28.081Z,100.00
2022-09-15T03:09:30.670Z,100.00
2022-09-15T03:12:38.307Z,100.00
2022-09-15T03:15:40.939Z,100.00
2022-09-15T03:18:43.343Z,100.00
2022-09-15T03:21:45.789Z,100.00
2022-09-15T03:24:48.061Z,100.00
2022-09-15T03:27:50.743Z,100.00
2022-09-15T03:30:53.937Z,100.00
2022-09-15T03:33:57.035Z,100.00
2022-09-15T03:37:00.330Z,100.00
2022-09-15T03:40:04.423Z,100.00
2022-09-15T03:43:07.352Z,100.00
2022-09-15T03:46:11.808Z,100.00
2022-09-15T03:49:14.224Z,100.00
2022-09-15T03:52:17.221Z,100.00
2022-09-15T03:55:20.180Z,100.00
2022-09-15T03:58:22.874Z,100.00
2022-09-15T04:01:26.468Z,100.00
2022-09-15T04:04:29.267Z,100.00
2022-09-15T04:07:33.227Z,100.00
2022-09-15T04:10:39.058Z,100.00
2022-09-15T04:13:42.992Z,100.00
2022-09-15T04:16:45.730Z,100.00
2022-09-15T04:19:48.371Z,100.00
2022-09-15T04:22:51.418Z,100.00
2022-09-15T04:26:01.668Z,100.00
2022-09-15T04:29:05.181Z,100.00
2022-09-15T04:32:08.256Z,100.00
2022-09-15T04:35:11.176Z,100.00
2022-09-15T04:38:15.171Z,100.00
2022-09-15T04:41:19.705Z,100.00
2022-09-15T04:44:24.227Z,100.00
2022-09-15T04:47:28.434Z,100.00
2022-09-15T04:50:32.503Z,100.00
2022-09-15T04:53:36.140Z,100.00
2022-09-15T04:56:39.247Z,100.00
2022-09-15T04:59:42.467Z,100.00
2022-09-15T05:02:50.548Z,100.00
2022-09-15T05:05:52.940Z,100.00
2022-09-15T05:08:56.424Z,100.00
2022-09-15T05:11:58.937Z,100.00
2022-09-15T05:15:01.700Z,100.00
2022-09-15T05:18:04.700Z,100.00
2022-09-15T05:21:07.868Z,100.00
2022-09-15T05:24:10.365Z,100.00
2022-09-15T05:27:12.636Z,100.00
2022-09-15T05:30:36.287Z,100.00
2022-09-15T05:33:37.954Z,100.00
2022-09-15T05:36:40.862Z,100.00
2022-09-15T05:39:44.510Z,100.00
2022-09-15T05:42:47.253Z,100.00
2022-09-15T05:45:56.451Z,100.00
2022-09-15T05:48:59.344Z,100.00
2022-09-15T05:52:03.094Z,100.00
2022-09-15T05:55:07.101Z,100.00
2022-09-15T05:58:11.505Z,100.00
2022-09-15T06:01:18.672Z,100.00
2022-09-15T06:04:21.661Z,100.00
2022-09-15T06:07:24.439Z,100.00
2022-09-15T06:10:26.947Z,100.00
2022-09-15T06:13:32.445Z,100.00
2022-09-15T06:16:36.321Z,100.00
2022-09-15T06:19:39.258Z,100.00
2022-09-15T06:22:44.276Z,100.00
2022-09-15T06:25:47.054Z,100.00
2022-09-15T06:28:51.267Z,100.00
2022-09-15T06:31:54.439Z,100.00
2022-09-15T06:34:57.350Z,100.00
2022-09-15T06:38:00.663Z,100.00
2022-09-15T06:41:03.698Z,100.00
2022-09-15T06:44:06.242Z,100.00
2022-09-15T06:47:08.613Z,100.00
2022-09-15T06:50:11.197Z,100.00
2022-09-15T06:53:13.798Z,100.00
2022-09-15T06:56:18.021Z,100.00
2022-09-15T06:59:20.891Z,100.00
2022-09-15T07:02:23.426Z,100.00
2022-09-15T07:05:26.046Z,100.00
2022-09-15T07:08:29.267Z,100.00
2022-09-15T07:11:35.005Z,100.00
2022-09-15T07:14:39.912Z,100.00
2022-09-15T07:17:43.269Z,100.00
2022-09-15T07:20:49.581Z,100.00
2022-09-15T07:23:52.781Z,100.00
2022-09-15T07:26:55.568Z,100.00
2022-09-15T07:30:01.820Z,94.57
2022-09-15T07:33:05.219Z,93.39
2022-09-15T07:36:08.418Z,90.33
2022-09-15T07:39:11.609Z,89.31
2022-09-15T07:42:15.550Z,86.81
2022-09-15T07:45:18.190Z,85.65
2022-09-15T07:48:25.714Z,84.76
2022-09-15T07:51:30.348Z,81.61
2022-09-15T07:54:33.509Z,83.75
2022-09-15T07:57:36.807Z,82.48
2022-09-15T08:00:41.805Z,83.11
2022-09-15T08:03:46.155Z,80.95
2022-09-15T08:06:49.367Z,81.90
2022-09-15T08:09:53.517Z,80.67
2022-09-15T08:12:56.971Z,80.60
2022-09-15T08:16:07.400Z,80.21
2022-09-15T08:19:10.030Z,76.29
2022-09-15T08:22:12.613Z,73.29
2022-09-15T08:25:14.885Z,71.16
2022-09-15T08:28:17.859Z,70.47
2022-09-15T08:31:20.479Z,72.34
2022-09-15T08:34:25.025Z,68.92
2022-09-15T08:37:27.954Z,70.20
2022-09-15T08:40:36.500Z,69.91
2022-09-15T08:43:46.752Z,68.93
2022-09-15T08:47:20.455Z,69.46
2022-09-15T08:50:28.371Z,68.76
2022-09-15T08:53:36.315Z,69.53
2022-09-15T08:56:40.265Z,69.25
2022-09-15T08:59:43.345Z,70.23
2022-09-15T09:02:54.358Z,68.09
2022-09-15T09:06:04.197Z,67.72
2022-09-15T09:09:09.561Z,65.96
2022-09-15T09:12:20.190Z,65.52
2022-09-15T09:15:41.476Z,64.09
2022-09-15T09:19:04.245Z,60.85
2022-09-15T09:22:12.246Z,61.32
2022-09-15T09:25:27.303Z,59.99
2022-09-15T09:28:39.677Z,60.53
2022-09-15T09:31:42.023Z,61.05
2022-09-15T09:35:10.646Z,55.39
2022-09-15T09:38:20.886Z,51.35
2022-09-15T09:41:36.039Z,50.97
2022-09-15T09:44:39.852Z,50.92
2022-09-15T09:47:43.456Z,50.40
2022-09-15T09:50:49.297Z,49.36
2022-09-15T09:53:54.251Z,49.32
2022-09-15T09:56:59.272Z,49.84
2022-09-15T10:00:02.927Z,51.05
2022-09-15T10:03:22.245Z,50.38
2022-09-15T10:06:27.092Z,50.47
2022-09-15T10:09:33.280Z,50.04
2022-09-15T10:12:40.133Z,50.63
2022-09-15T10:15:43.295Z,52.33
2022-09-15T10:18:50.900Z,51.07
2022-09-15T10:21:57.190Z,51.36
2022-09-15T10:25:03.460Z,51.33
2022-09-15T10:28:08.929Z,51.49
2022-09-15T10:31:13.728Z,52.11
2022-09-15T10:34:26.583Z,52.37
2022-09-15T10:37:45.638Z,49.06
2022-09-15T10:40:54.880Z,51.64
2022-09-15T10:44:15.573Z,48.42
2022-09-15T10:47:36.668Z,50.21
2022-09-15T10:50:57.001Z,48.78
2022-09-15T10:54:15.542Z,49.75
2022-09-15T10:57:33.082Z,50.96
2022-09-15T11:00:44.704Z,53.06
2022-09-15T11:03:51.059Z,51.55
2022-09-15T11:07:01.195Z,52.38
2022-09-15T11:10:03.462Z,51.40
2022-09-15T11:13:20.890Z,51.15
2022-09-15T11:16:27.331Z,51.38
2022-09-15T11:19:32.825Z,50.02
2022-09-15T11:22:39.310Z,50.76
2022-09-15T11:25:45.159Z,52.48
2022-09-15T11:29:04.950Z,54.78
2022-09-15T11:32:11.019Z,57.68
2022-09-15T11:35:33.027Z,61.28
2022-09-15T11:38:48.845Z,63.00
2022-09-15T11:41:59.983Z,64.87
2022-09-15T11:45:03.316Z,65.75
2022-09-15T11:48:13.590Z,66.73
2022-09-15T11:51:19.149Z,67.57
2022-09-15T11:54:29.045Z,67.80
2022-09-15T11:57:57.943Z,67.13
2022-09-15T12:01:33.486Z,65.48
2022-09-15T12:04:41.455Z,64.86
2022-09-15T12:07:50.814Z,65.32
2022-09-15T12:11:03.111Z,65.20
2022-09-15T12:14:06.630Z,65.87
2022-09-15T12:17:13.298Z,68.40
2022-09-15T12:20:29.289Z,69.07
2022-09-15T12:23:39.847Z,71.00
2022-09-15T12:26:43.662Z,70.90
2022-09-15T12:29:56.531Z,70.94
2022-09-15T12:32:58.634Z,70.68
2022-09-15T12:36:19.744Z,70.81
2022-09-15T12:39:31.368Z,71.27
2022-09-15T12:42:35.593Z,71.74
2022-09-15T12:45:38.996Z,71.12
2022-09-15T12:48:47.383Z,71.48
2022-09-15T12:51:51.624Z,71.91
2022-09-15T12:55:02.016Z,71.15
2022-09-15T12:58:09.233Z,73.07
2022-09-15T13:01:25.221Z,74.04
2022-09-15T13:04:43.344Z,76.90
2022-09-15T13:07:55.921Z,87.29
2022-09-15T13:11:09.367Z,100.00
2022-09-15T13:14:47.117Z,100.00
2022-09-15T13:17:49.529Z,100.00
2022-09-15T13:20:58.805Z,100.00
2022-09-15T13:24:02.801Z,100.00
2022-09-15T13:27:06.198Z,100.00
2022-09-15T13:30:21.051Z,100.00
2022-09-15T13:44:36.566Z,100.00
2022-09-15T13:51:42.687Z,100.00
2022-09-15T13:55:04.473Z,100.00
2022-09-15T14:01:53.347Z,100.00
2022-09-15T14:48:41.058Z,100.00
2022-09-15T14:51:44.284Z,100.00
2022-09-15T14:54:46.177Z,100.00
2022-09-15T14:57:53.335Z,100.00
2022-09-15T15:00:55.117Z,100.00
2022-09-15T15:04:03.089Z,100.00
2022-09-15T15:07:04.976Z,100.00
2022-09-15T15:10:07.123Z,100.00
2022-09-15T15:13:14.090Z,100.00
2022-09-15T15:16:26.500Z,100.00
2022-09-15T15:19:33.154Z,100.00
2022-09-15T15:22:35.750Z,100.00
2022-09-15T15:25:37.679Z,100.00
2022-09-15T15:28:39.518Z,100.00
2022-09-15T15:31:41.397Z,100.00
2022-09-15T15:34:50.598Z,100.00
2022-09-15T15:38:25.316Z,100.00
2022-09-15T15:41:28.595Z,100.00
2022-09-15T15:44:31.059Z,100.00
2022-09-15T15:47:35.624Z,100.00
2022-09-15T15:50:37.581Z,100.00
2022-09-15T15:53:40.165Z,100.00
2022-09-15T15:56:42.805Z,100.00
2022-09-15T15:59:46.377Z,100.00
2022-09-15T16:02:48.623Z,100.00
2022-09-15T16:05:52.149Z,100.00
2022-09-15T16:08:56.003Z,100.00
2022-09-15T16:11:58.310Z,100.00
2022-09-15T16:15:00.216Z,100.00
2022-09-15T16:18:02.138Z,100.00
2022-09-15T16:21:04.094Z,100.00
2022-09-15T16:24:06.680Z,100.00
2022-09-15T16:27:13.805Z,100.00
2022-09-15T16:30:15.744Z,100.00
2022-09-15T16:33:18.524Z,100.00
2022-09-15T16:36:20.560Z,100.00
2022-09-15T16:39:22.624Z,100.00
2022-09-15T16:42:24.490Z,100.00
2022-09-15T16:45:38.053Z,100.00
2022-09-15T16:48:43.264Z,100.00
2022-09-15T16:51:45.226Z,100.00
2022-09-15T16:54:47.121Z,100.00
2022-09-15T16:57:49.816Z,100.00
2022-09-15T17:00:52.693Z,100.00
2022-09-15T17:03:54.787Z,100.00
2022-09-15T17:06:56.807Z,100.00
2022-09-15T17:09:58.835Z,100.00
2022-09-15T17:13:01.561Z,100.00
2022-09-15T17:16:04.201Z,100.00
2022-09-15T17:19:06.259Z,100.00
2022-09-15T17:22:08.742Z,100.00
2022-09-15T17:25:19.971Z,100.00
2022-09-15T17:28:23.990Z,100.00
2022-09-15T17:31:28.936Z,100.00
2022-09-15T17:34:30.909Z,100.00
2022-09-15T17:37:32.842Z,100.00
2022-09-15T17:40:35.727Z,100.00
2022-09-15T17:43:37.708Z,100.00
2022-09-15T17:46:39.961Z,100.00
2022-09-15T17:49:42.085Z,100.00
2022-09-15T17:52:44.415Z,100.00
2022-09-15T17:55:46.463Z,100.00
2022-09-15T17:58:48.713Z,100.00
2022-09-15T18:01:50.996Z,100.00
2022-09-15T18:04:53.033Z,100.00
2022-09-15T18:07:56.290Z,100.00
2022-09-15T18:10:59.130Z,100.00
2022-09-15T18:14:01.259Z,100.00
2022-09-15T18:17:03.236Z,100.00
2022-09-15T18:20:11.291Z,100.00
2022-09-15T18:23:14.513Z,100.00
2022-09-15T18:26:16.470Z,100.00
2022-09-15T18:29:18.786Z,100.00
2022-09-15T18:32:20.927Z,100.00
2022-09-15T18:35:22.995Z,100.00
2022-09-15T18:38:25.323Z,100.00
2022-09-15T18:41:28.390Z,100.00
2022-09-15T18:44:30.587Z,100.00
2022-09-15T18:47:33.743Z,100.00
2022-09-15T18:50:38.837Z,100.00
2022-09-15T18:53:41.369Z,100.00
2022-09-15T18:56:46.206Z,100.00
2022-09-15T18:59:49.031Z,100.00
2022-09-15T19:03:02.034Z,100.00
2022-09-15T19:06:05.796Z,100.00
2022-09-15T19:09:13.020Z,100.00
2022-09-15T19:12:19.118Z,100.00
2022-09-15T19:15:24.371Z,100.00
2022-09-15T19:18:48.592Z,100.00
2022-09-15T19:21:54.986Z,100.00
2022-09-15T19:24:59.548Z,100.00
2022-09-15T19:28:02.606Z,100.00
2022-09-15T19:31:11.190Z,100.00
2022-09-15T19:34:20.291Z,100.00
2022-09-15T19:37:59.920Z,100.00
2022-09-15T19:45:03.307Z,100.00
